Terminal Aerodrome Forecast
Issued by NWS

Home | Current Version | Previous Version | Text Only | Print | Product List | Glossary On
Versions: 1 2 3 4 5 6 7 8 9 10 11 12 13 14
000
FTUS43 KBIS 231125
TAFJMS
TAF
KJMS 231125Z 2312/2412 31021G31KT P6SM BKN025 OVC030
     FM231500 31021G30KT P6SM SCT025 OVC035
     FM231800 31022G31KT P6SM FEW035 SCT080
     FM240200 32009KT P6SM FEW035 FEW200
     FM241100 31015G23KT P6SM BKN040=

USA.gov is the U.S. government's official web portal to all federal, state and local government web resources and services.